Time;durP1;ratioP1;P1;durP2;ratioP2;P2;SDS_P1;SDS_P2;PMS_P1;PMS_P2;Temp;Humidity;BMP_temperature;BMP_pressure;BME280_temperature;BME280_humidity;BME280_pressure;Samples;Min_cycle;Max_cycle;Signal;HPM_P1;HPM_P2
2022/01/05 00:00:39;;;;;;;7.23;2.20;;;4.10;99.90;;;;;;5015647;28;20202;-92
2022/01/05 00:03:05;;;;;;;8.23;2.10;;;4.10;99.90;;;;;;5016331;28;20183;-94
2022/01/05 00:05:35;;;;;;;8.03;2.07;;;4.10;99.90;;;;;;5016386;28;20584;-94
2022/01/05 00:08:03;;;;;;;14.37;2.30;;;4.00;99.90;;;;;;5015527;28;20297;-94
2022/01/05 00:10:46;;;;;;;7.23;1.97;;;4.00;99.90;;;;;;5014828;28;20183;-94
2022/01/05 00:13:25;;;;;;;8.87;2.17;;;4.00;99.90;;;;;;5015318;28;20198;-93
2022/01/05 00:15:56;;;;;;;10.87;2.27;;;4.00;99.90;;;;;;5015873;28;20183;-94
2022/01/05 00:18:25;;;;;;;8.07;2.07;;;4.00;99.90;;;;;;5014916;28;20194;-92
2022/01/05 00:21:31;;;;;;;7.73;1.73;;;4.00;99.90;;;;;;5014413;28;20187;-93
2022/01/05 00:23:57;;;;;;;11.93;2.23;;;4.00;99.90;;;;;;5014397;28;20611;-93
2022/01/05 00:26:27;;;;;;;7.00;1.97;;;4.00;99.90;;;;;;5013912;28;20182;-93
2022/01/05 00:29:10;;;;;;;11.03;1.87;;;3.90;99.90;;;;;;5014257;28;20266;-93
2022/01/05 00:31:37;;;;;;;9.30;2.53;;;3.90;99.90;;;;;;5014922;28;20209;-93
2022/01/05 00:34:09;;;;;;;12.03;2.30;;;3.90;99.90;;;;;;5014744;28;20178;-94
2022/01/05 00:36:46;;;;;;;7.73;2.07;;;3.90;99.90;;;;;;5014770;28;20199;-93
2022/01/05 00:39:14;;;;;;;10.00;3.03;;;3.90;99.90;;;;;;5014124;28;20175;-93
2022/01/05 00:41:49;;;;;;;12.03;2.57;;;3.90;99.90;;;;;;5014332;28;20193;-94
2022/01/05 00:44:32;;;;;;;13.17;2.23;;;3.90;99.90;;;;;;5014360;28;20205;-93
2022/01/05 00:47:38;;;;;;;11.27;1.90;;;3.90;99.90;;;;;;5014026;28;20577;-96
2022/01/05 00:50:35;;;;;;;12.70;2.70;;;3.90;99.90;;;;;;5014124;28;20171;-93
2022/01/05 00:53:01;;;;;;;6.60;1.60;;;3.90;99.90;;;;;;5014774;28;20635;-93
2022/01/05 00:55:28;;;;;;;9.77;2.20;;;3.90;99.90;;;;;;5015079;28;20175;-94
2022/01/05 00:58:02;;;;;;;13.37;2.30;;;3.90;99.90;;;;;;5014563;28;20278;-94
2022/01/05 01:00:39;;;;;;;13.17;2.63;;;3.90;99.90;;;;;;5014605;28;20167;-94
2022/01/05 01:03:05;;;;;;;8.20;1.70;;;3.90;99.90;;;;;;5014324;28;20175;-94
2022/01/05 01:05:33;;;;;;;6.17;2.10;;;3.90;99.90;;;;;;5014596;28;20171;-94
2022/01/05 01:07:59;;;;;;;13.03;2.43;;;3.90;99.90;;;;;;5014369;28;20195;-94
2022/01/05 01:10:30;;;;;;;8.87;1.90;;;3.90;99.90;;;;;;5014358;28;20694;-94
2022/01/05 01:13:03;;;;;;;7.90;1.97;;;3.90;99.90;;;;;;5014362;28;20239;-94
2022/01/05 01:15:33;;;;;;;8.73;2.17;;;4.00;99.90;;;;;;5014022;28;20643;-94
2022/01/05 01:18:26;;;;;;;10.83;1.90;;;3.90;99.90;;;;;;5014214;28;20191;-93
2022/01/05 01:20:52;;;;;;;8.77;2.10;;;3.90;99.90;;;;;;5014185;28;20202;-93
2022/01/05 01:23:55;;;;;;;10.03;1.77;;;3.90;99.90;;;;;;5014165;28;20250;-94
2022/01/05 01:26:40;;;;;;;12.13;2.20;;;4.00;99.90;;;;;;5013513;28;20177;-93
2022/01/05 01:29:08;;;;;;;12.27;2.00;;;3.90;99.90;;;;;;5013914;28;20172;-93
2022/01/05 01:31:42;;;;;;;6.77;1.80;;;3.90;99.90;;;;;;5013630;28;20286;-94
2022/01/05 01:34:23;;;;;;;8.93;2.10;;;3.90;99.90;;;;;;5013999;28;20195;-93
2022/01/05 01:36:54;;;;;;;9.57;1.63;;;3.90;99.90;;;;;;5014052;28;20202;-93
2022/01/05 01:39:30;;;;;;;12.17;1.70;;;4.00;99.90;;;;;;5013386;28;20631;-93
2022/01/05 01:42:20;;;;;;;8.73;1.80;;;3.90;99.90;;;;;;5013483;28;20533;-92
2022/01/05 01:44:59;;;;;;;5.53;1.67;;;4.00;99.90;;;;;;5013837;28;20172;-93
2022/01/05 01:47:33;;;;;;;10.03;2.10;;;4.00;99.90;;;;;;5013633;28;20306;-94
2022/01/05 01:50:07;;;;;;;9.40;1.57;;;4.00;99.90;;;;;;5015122;28;20168;-93
2022/01/05 01:52:43;;;;;;;9.13;1.80;;;4.00;99.90;;;;;;5017327;28;20658;-93
2022/01/05 01:55:15;;;;;;;8.30;2.03;;;4.00;99.90;;;;;;5017401;28;20678;-94
2022/01/05 01:57:43;;;;;;;6.90;1.80;;;3.90;99.90;;;;;;5017222;28;20199;-93
2022/01/05 02:00:13;;;;;;;6.33;1.97;;;4.00;99.90;;;;;;5017618;28;20719;-93
2022/01/05 02:02:54;;;;;;;9.37;1.80;;;4.00;99.90;;;;;;5017295;28;20171;-93
2022/01/05 02:05:20;;;;;;;13.10;2.10;;;4.00;99.90;;;;;;5017529;28;20171;-94
2022/01/05 02:08:15;;;;;;;6.33;2.17;;;3.90;99.90;;;;;;5017654;28;20226;-93
2022/01/05 02:10:52;;;;;;;9.40;2.40;;;3.90;99.90;;;;;;5017052;28;20573;-93
2022/01/05 02:13:21;;;;;;;6.83;2.10;;;3.90;99.90;;;;;;5017135;28;20194;-93
2022/01/05 02:15:48;;;;;;;10.13;1.60;;;3.90;99.90;;;;;;5017093;28;20662;-93
2022/01/05 02:18:58;;;;;;;10.80;1.70;;;3.90;99.90;;;;;;5016685;28;20218;-94
2022/01/05 02:21:11;;;;;;;14.13;2.33;;;3.90;99.90;;;;;;5020678;28;20194;-93
2022/01/05 02:23:38;;;;;;;7.27;1.93;;;3.80;99.90;;;;;;5016945;28;20181;-95
2022/01/05 02:26:07;;;;;;;7.90;2.57;;;3.80;99.90;;;;;;5017414;28;20631;-94
2022/01/05 02:28:35;;;;;;;15.57;2.20;;;3.80;99.90;;;;;;5016217;28;20176;-93
2022/01/05 02:31:13;;;;;;;11.70;2.30;;;3.80;99.90;;;;;;5016049;28;20233;-94
2022/01/05 02:33:42;;;;;;;6.30;2.17;;;3.80;99.90;;;;;;5016969;28;20171;-93
2022/01/05 02:36:09;;;;;;;8.30;2.13;;;3.80;99.90;;;;;;5017295;28;20163;-93
2022/01/05 02:38:37;;;;;;;7.20;1.70;;;3.80;99.90;;;;;;5017421;28;20258;-94
2022/01/05 02:41:14;;;;;;;12.03;2.37;;;3.80;99.90;;;;;;5017078;28;20242;-94
2022/01/05 02:43:44;;;;;;;9.77;1.80;;;3.80;99.90;;;;;;5018394;28;20187;-94
2022/01/05 02:46:17;;;;;;;11.57;2.03;;;3.80;99.90;;;;;;5017426;28;20175;-93
2022/01/05 02:48:44;;;;;;;10.53;2.13;;;3.80;99.90;;;;;;5016882;28;20267;-95
2022/01/05 02:51:43;;;;;;;8.87;2.03;;;3.80;99.90;;;;;;5017071;28;20210;-94
2022/01/05 02:54:19;;;;;;;8.20;1.90;;;3.70;99.90;;;;;;5017345;28;20241;-94
2022/01/05 02:56:53;;;;;;;8.53;2.30;;;3.70;99.90;;;;;;5017737;28;20198;-94
2022/01/05 02:59:23;;;;;;;9.97;2.70;;;3.80;99.90;;;;;;5016793;28;20177;-94
2022/01/05 03:02:01;;;;;;;8.63;1.80;;;3.80;99.90;;;;;;5016371;28;20176;-94
2022/01/05 03:04:33;;;;;;;12.33;2.10;;;3.80;99.90;;;;;;5017660;28;20172;-94
2022/01/05 03:07:09;;;;;;;13.77;2.27;;;3.70;99.90;;;;;;5016654;28;20238;-94
2022/01/05 03:09:37;;;;;;;11.07;2.13;;;3.70;99.90;;;;;;5017618;28;20178;-95
2022/01/05 03:12:06;;;;;;;7.53;1.93;;;3.70;99.90;;;;;;5017268;28;20609;-94
2022/01/05 03:14:41;;;;;;;16.47;2.00;;;3.70;99.90;;;;;;5017533;28;20167;-94
2022/01/05 03:17:28;;;;;;;14.30;2.67;;;3.70;99.90;;;;;;5016890;28;20209;-93
2022/01/05 03:20:20;;;;;;;12.20;1.97;;;3.70;99.90;;;;;;5017496;28;20174;-93
2022/01/05 03:23:35;;;;;;;6.37;1.80;;;3.60;99.90;;;;;;5016544;28;20176;-94
2022/01/05 03:28:36;;;;;;;14.50;2.23;;;3.70;99.90;;;;;;5037809;22;20236;-94
2022/01/05 03:31:02;;;;;;;12.40;2.30;;;3.60;99.90;;;;;;4986005;28;20681;-95
2022/01/05 03:33:28;;;;;;;9.30;1.87;;;3.60;99.90;;;;;;4972759;28;20272;-94
2022/01/05 03:35:54;;;;;;;11.70;2.00;;;3.60;99.90;;;;;;4962449;28;20168;-94
2022/01/05 03:38:19;;;;;;;9.80;2.27;;;3.60;99.90;;;;;;4976663;28;20177;-93
2022/01/05 03:40:46;;;;;;;14.10;2.73;;;3.60;99.90;;;;;;4976381;28;20223;-95
2022/01/05 03:43:13;;;;;;;13.07;2.17;;;3.60;99.90;;;;;;4976649;28;20184;-94
2022/01/05 03:45:39;;;;;;;8.73;1.63;;;3.60;99.90;;;;;;4976703;28;20173;-93
2022/01/05 03:48:08;;;;;;;14.43;2.20;;;3.60;99.90;;;;;;4976705;28;20603;-94
2022/01/05 03:50:35;;;;;;;11.43;1.90;;;3.60;99.90;;;;;;4976710;28;20215;-94
2022/01/05 03:53:00;;;;;;;7.27;1.70;;;3.60;99.90;;;;;;4976752;28;20224;-94
2022/01/05 03:55:26;;;;;;;11.13;2.33;;;3.60;99.90;;;;;;4976290;28;20180;-94
2022/01/05 03:57:52;;;;;;;11.70;2.27;;;3.60;99.90;;;;;;4964459;28;20283;-94
2022/01/05 04:00:19;;;;;;;13.53;2.77;;;3.50;99.90;;;;;;4975645;28;20220;-93
2022/01/05 04:02:44;;;;;;;18.97;2.37;;;3.60;99.90;;;;;;4975209;28;20196;-94
2022/01/05 04:05:13;;;;;;;11.87;2.30;;;3.60;99.90;;;;;;4963718;28;20265;-95
2022/01/05 04:07:39;;;;;;;7.30;1.80;;;3.50;99.90;;;;;;4956645;28;20181;-94
2022/01/05 04:10:05;;;;;;;7.23;1.90;;;3.50;99.90;;;;;;4972823;28;20199;-95
2022/01/05 04:12:31;;;;;;;10.37;2.33;;;3.50;99.90;;;;;;4973853;28;20521;-94
2022/01/05 04:14:57;;;;;;;10.50;1.97;;;3.60;99.90;;;;;;4971021;28;20312;-94
2022/01/05 04:17:22;;;;;;;12.17;2.03;;;3.60;99.90;;;;;;4975261;28;20227;-93
2022/01/05 04:19:48;;;;;;;8.63;2.20;;;3.60;99.90;;;;;;4975719;28;20179;-94
2022/01/05 04:22:15;;;;;;;10.60;2.10;;;3.60;99.90;;;;;;4975700;28;20180;-94
2022/01/05 04:24:40;;;;;;;9.03;2.10;;;3.60;99.90;;;;;;4975129;28;20184;-94
2022/01/05 04:27:06;;;;;;;9.17;1.90;;;3.60;99.90;;;;;;4974960;28;20306;-95
2022/01/05 04:29:32;;;;;;;12.13;2.10;;;3.50;99.90;;;;;;4975576;28;20216;-95
2022/01/05 04:31:58;;;;;;;13.30;1.90;;;3.50;99.90;;;;;;4975825;28;20260;-93
2022/01/05 04:34:23;;;;;;;11.47;1.90;;;3.50;99.90;;;;;;4976663;28;20176;-94
2022/01/05 04:36:49;;;;;;;13.97;1.90;;;3.60;99.90;;;;;;4974479;28;20181;-94
2022/01/05 04:39:15;;;;;;;13.37;1.80;;;3.50;99.90;;;;;;4971937;28;20176;-94
2022/01/05 04:41:40;;;;;;;9.73;2.03;;;3.50;99.90;;;;;;4975174;28;20235;-93
2022/01/05 04:44:06;;;;;;;12.07;1.90;;;3.50;99.90;;;;;;4974844;28;20177;-94
2022/01/05 04:46:32;;;;;;;13.90;2.40;;;3.50;99.90;;;;;;4975102;28;20611;-94
2022/01/05 04:48:59;;;;;;;6.97;1.90;;;3.50;99.90;;;;;;4968397;28;20188;-94
2022/01/05 04:51:24;;;;;;;11.93;2.13;;;3.50;99.90;;;;;;4975172;28;20519;-94
2022/01/05 04:53:51;;;;;;;9.70;1.73;;;3.50;99.90;;;;;;4975343;28;20246;-94
2022/01/05 04:56:17;;;;;;;9.53;1.70;;;3.50;99.90;;;;;;4975096;28;20263;-95
2022/01/05 04:58:43;;;;;;;15.53;2.10;;;3.50;99.90;;;;;;4974476;28;20195;-93
2022/01/05 05:01:09;;;;;;;10.57;2.30;;;3.50;99.90;;;;;;4972106;28;20186;-94
2022/01/05 05:03:34;;;;;;;8.43;1.80;;;3.50;99.90;;;;;;4955903;28;20204;-95
2022/01/05 05:06:00;;;;;;;17.20;2.50;;;3.50;99.90;;;;;;4968305;28;20184;-94
2022/01/05 05:08:26;;;;;;;10.17;2.23;;;3.50;99.90;;;;;;4976113;28;20255;-94
2022/01/05 05:10:52;;;;;;;11.37;2.30;;;3.40;99.90;;;;;;4974952;28;20192;-94
2022/01/05 05:13:18;;;;;;;11.50;2.30;;;3.40;99.90;;;;;;4975321;28;20192;-94
2022/01/05 05:15:44;;;;;;;6.93;1.43;;;3.40;99.90;;;;;;4974820;28;20184;-94
2022/01/05 05:18:10;;;;;;;9.77;1.70;;;3.30;99.90;;;;;;4974813;28;20639;-94
2022/01/05 05:20:36;;;;;;;18.53;2.00;;;3.30;99.90;;;;;;4974619;28;20220;-94
2022/01/05 05:23:03;;;;;;;9.13;1.83;;;3.30;99.90;;;;;;4974640;28;20186;-94
2022/01/05 05:25:29;;;;;;;8.93;1.93;;;3.40;99.90;;;;;;4970131;28;20188;-95
2022/01/05 05:27:55;;;;;;;9.07;2.03;;;3.30;99.90;;;;;;4978143;28;20320;-94
2022/01/05 05:30:24;;;;;;;6.17;1.73;;;3.30;99.90;;;;;;4978942;28;20271;-96
2022/01/05 05:32:49;;;;;;;7.93;2.00;;;3.20;99.90;;;;;;4979080;28;20209;-95
2022/01/05 05:35:16;;;;;;;11.73;2.53;;;3.20;99.90;;;;;;4979081;28;20222;-96
2022/01/05 05:37:42;;;;;;;8.63;2.40;;;3.20;99.90;;;;;;4978261;28;20188;-95
2022/01/05 05:40:08;;;;;;;10.30;2.00;;;3.10;99.90;;;;;;4978823;28;20184;-94
2022/01/05 05:42:34;;;;;;;9.33;1.73;;;3.10;99.90;;;;;;4978665;28;20184;-94
2022/01/05 05:45:00;;;;;;;10.20;2.30;;;3.00;99.90;;;;;;4978060;28;20179;-94
2022/01/05 05:47:25;;;;;;;9.40;2.03;;;3.00;99.90;;;;;;4978961;28;20592;-94
2022/01/05 05:49:51;;;;;;;11.37;2.47;;;3.00;99.90;;;;;;4979017;28;20274;-94
2022/01/05 05:52:17;;;;;;;10.23;2.57;;;3.00;99.90;;;;;;4978596;28;20224;-94
2022/01/05 05:54:43;;;;;;;7.80;1.80;;;3.00;99.90;;;;;;4977889;28;20206;-94
2022/01/05 05:57:08;;;;;;;6.40;2.00;;;3.00;99.90;;;;;;4978378;28;20188;-94
2022/01/05 05:59:34;;;;;;;14.83;1.97;;;3.00;99.90;;;;;;4978301;28;20180;-94
2022/01/05 06:02:00;;;;;;;10.93;1.63;;;2.90;99.90;;;;;;4978634;28;20188;-94
2022/01/05 06:04:26;;;;;;;8.53;2.13;;;2.90;99.90;;;;;;4978848;28;20185;-95
2022/01/05 06:06:52;;;;;;;8.80;1.73;;;2.90;99.90;;;;;;4977760;28;20202;-94
2022/01/05 06:09:18;;;;;;;8.70;1.63;;;2.80;99.90;;;;;;4978383;28;20199;-94
2022/01/05 06:11:44;;;;;;;10.37;2.50;;;2.80;99.90;;;;;;4978777;28;20215;-94
2022/01/05 06:14:10;;;;;;;10.73;1.83;;;2.70;99.90;;;;;;4978019;28;20646;-94
2022/01/05 06:16:36;;;;;;;11.17;2.00;;;2.80;99.90;;;;;;4978319;28;20195;-94
2022/01/05 06:19:01;;;;;;;12.00;2.23;;;2.70;99.90;;;;;;4977849;28;20195;-94
2022/01/05 06:21:27;;;;;;;7.10;1.80;;;2.70;99.90;;;;;;4977433;28;20188;-95
2022/01/05 06:23:53;;;;;;;10.80;2.27;;;2.70;99.90;;;;;;4977825;28;20242;-94
2022/01/05 06:26:21;;;;;;;15.30;1.87;;;2.70;99.90;;;;;;4977806;28;20191;-94
2022/01/05 06:28:47;;;;;;;10.40;1.77;;;2.70;99.90;;;;;;4977387;28;20318;-94
2022/01/05 06:31:14;;;;;;;10.87;1.83;;;2.70;99.90;;;;;;4977881;28;20726;-94
2022/01/05 06:33:39;;;;;;;10.10;1.87;;;2.70;99.90;;;;;;4977782;28;20236;-94
2022/01/05 06:36:05;;;;;;;10.30;2.03;;;2.60;99.90;;;;;;4976224;28;20181;-94
2022/01/05 06:38:31;;;;;;;15.27;2.30;;;2.60;99.90;;;;;;4977760;28;20188;-94
2022/01/05 06:40:57;;;;;;;8.80;1.90;;;2.60;99.90;;;;;;4977500;28;20196;-93
2022/01/05 06:43:22;;;;;;;7.33;2.73;;;2.60;99.90;;;;;;4970550;28;20536;-92
2022/01/05 06:45:48;;;;;;;14.97;2.03;;;2.60;99.90;;;;;;4976986;28;20188;-92
2022/01/05 06:48:14;;;;;;;5.90;1.63;;;2.60;99.90;;;;;;4977165;28;20188;-93
2022/01/05 06:50:40;;;;;;;7.70;1.90;;;2.60;99.90;;;;;;4976361;28;20198;-92
2022/01/05 06:53:06;;;;;;;6.53;1.80;;;2.60;99.90;;;;;;4977088;28;20212;-93
2022/01/05 06:55:32;;;;;;;10.70;1.80;;;2.60;99.90;;;;;;4977400;28;20187;-94
2022/01/05 06:57:58;;;;;;;7.27;1.87;;;2.60;99.90;;;;;;4976399;28;20620;-95
2022/01/05 07:00:24;;;;;;;13.50;2.10;;;2.60;99.90;;;;;;4972943;28;20333;-92
2022/01/05 07:02:50;;;;;;;8.33;1.73;;;2.60;99.90;;;;;;4957740;28;20180;-93
2022/01/05 07:05:16;;;;;;;9.53;1.80;;;2.60;99.90;;;;;;4957649;28;20181;-93
2022/01/05 07:07:42;;;;;;;12.33;2.17;;;2.60;99.90;;;;;;4958803;28;20248;-94
2022/01/05 07:10:10;;;;;;;8.43;1.93;;;2.60;99.90;;;;;;4977204;28;20188;-93
2022/01/05 07:12:36;;;;;;;9.03;2.00;;;2.60;99.90;;;;;;4976730;28;20270;-93
2022/01/05 07:15:04;;;;;;;15.67;2.30;;;2.50;99.90;;;;;;4977063;28;20238;-93
2022/01/05 07:17:29;;;;;;;11.47;2.20;;;2.50;99.90;;;;;;4976284;28;20577;-92
2022/01/05 07:19:55;;;;;;;13.93;2.40;;;2.60;99.90;;;;;;4974575;28;20204;-92
2022/01/05 07:22:21;;;;;;;12.60;2.10;;;2.50;99.90;;;;;;4976187;28;20267;-92
2022/01/05 07:24:47;;;;;;;11.20;2.33;;;2.50;99.90;;;;;;4976476;28;20293;-92
2022/01/05 07:27:12;;;;;;;11.33;2.40;;;2.50;99.90;;;;;;4975011;28;20240;-92
2022/01/05 07:29:38;;;;;;;10.97;2.37;;;2.50;99.90;;;;;;4960329;28;20520;-92
2022/01/05 07:32:05;;;;;;;10.33;1.80;;;2.50;99.90;;;;;;4976492;28;20244;-93
2022/01/05 07:34:31;;;;;;;12.93;2.20;;;2.50;99.90;;;;;;4976484;28;20177;-93
2022/01/05 07:36:56;;;;;;;12.80;2.67;;;2.50;99.90;;;;;;4975545;28;20180;-92
2022/01/05 07:39:22;;;;;;;9.73;2.07;;;2.50;99.90;;;;;;4959880;28;20584;-92
2022/01/05 07:41:48;;;;;;;5.27;1.80;;;2.40;99.90;;;;;;4959939;28;20265;-92
2022/01/05 07:44:14;;;;;;;7.17;2.13;;;2.40;99.90;;;;;;4966242;28;20180;-93
2022/01/05 07:46:40;;;;;;;9.53;2.03;;;2.40;99.90;;;;;;4975766;28;20184;-92
2022/01/05 07:49:06;;;;;;;12.97;3.10;;;2.40;99.90;;;;;;4975243;28;20185;-93
2022/01/05 07:51:32;;;;;;;12.33;2.60;;;2.50;99.90;;;;;;4975304;28;20212;-92
2022/01/05 07:53:58;;;;;;;8.57;2.33;;;2.40;99.90;;;;;;4976603;28;20173;-92
2022/01/05 07:56:24;;;;;;;17.00;2.30;;;2.50;99.90;;;;;;4975368;28;20243;-91
2022/01/05 07:58:50;;;;;;;11.77;2.63;;;2.40;99.90;;;;;;4975139;28;20194;-91
2022/01/05 08:01:20;;;;;;;18.63;2.83;;;2.50;99.90;;;;;;4975186;28;20187;-90
2022/01/05 08:03:46;;;;;;;15.03;2.80;;;2.50;99.90;;;;;;4976469;28;20255;-92
2022/01/05 08:06:12;;;;;;;10.67;2.97;;;2.50;99.90;;;;;;4976898;28;20320;-91
2022/01/05 08:08:38;;;;;;;10.67;2.57;;;2.50;99.90;;;;;;4975650;28;20196;-92
2022/01/05 08:11:05;;;;;;;11.57;2.73;;;2.50;99.90;;;;;;4957082;28;20181;-93
2022/01/05 08:13:30;;;;;;;17.00;3.23;;;2.50;99.90;;;;;;4956542;28;20188;-93
2022/01/05 08:15:56;;;;;;;9.57;2.83;;;2.60;99.90;;;;;;4973341;28;20188;-91
2022/01/05 08:18:22;;;;;;;12.50;3.40;;;2.50;99.90;;;;;;4975228;28;20239;-91
2022/01/05 08:20:49;;;;;;;8.33;2.67;;;2.60;99.90;;;;;;4975869;28;20191;-94
2022/01/05 08:23:21;;;;;;;15.40;3.33;;;2.60;99.90;;;;;;4975491;28;20191;-92
2022/01/05 08:25:48;;;;;;;15.73;2.93;;;2.60;99.90;;;;;;4975737;28;20616;-93
2022/01/05 08:28:16;;;;;;;10.93;3.07;;;2.60;99.90;;;;;;4973047;28;20232;-91
2022/01/05 08:30:44;;;;;;;11.40;3.03;;;2.60;99.90;;;;;;4956320;28;20192;-92
2022/01/05 08:33:10;;;;;;;9.87;3.00;;;2.70;99.90;;;;;;4956426;28;20221;-93
2022/01/05 08:35:36;;;;;;;12.20;3.27;;;2.70;99.90;;;;;;4956278;28;20189;-92
2022/01/05 08:38:03;;;;;;;12.57;3.37;;;2.70;99.90;;;;;;4956752;28;20181;-92
2022/01/05 08:40:30;;;;;;;20.03;2.93;;;2.80;99.90;;;;;;4960860;28;20185;-92
2022/01/05 08:42:56;;;;;;;13.17;3.43;;;2.90;99.90;;;;;;4975430;28;20666;-91
2022/01/05 08:45:24;;;;;;;15.17;3.30;;;2.90;99.90;;;;;;4973067;28;20184;-92
2022/01/05 08:47:51;;;;;;;15.10;3.23;;;2.90;99.90;;;;;;4956295;28;20188;-92
2022/01/05 08:50:19;;;;;;;10.20;2.33;;;3.00;99.90;;;;;;4956222;28;20675;-92
2022/01/05 08:52:45;;;;;;;12.70;3.17;;;2.90;99.90;;;;;;4964435;28;20213;-93
2022/01/05 08:55:13;;;;;;;15.00;3.63;;;2.90;99.90;;;;;;4969502;28;20264;-92
2022/01/05 08:57:40;;;;;;;13.33;3.33;;;2.90;99.90;;;;;;4974178;28;20195;-91
2022/01/05 09:00:07;;;;;;;11.10;3.70;;;2.90;99.90;;;;;;4973843;28;20180;-93
2022/01/05 09:02:33;;;;;;;20.87;3.30;;;2.90;99.90;;;;;;4965039;28;20681;-92
2022/01/05 09:04:59;;;;;;;12.53;3.67;;;3.00;99.90;;;;;;4976181;28;20212;-92
2022/01/05 09:07:25;;;;;;;11.20;3.20;;;2.90;99.90;;;;;;4974420;28;20185;-92
2022/01/05 09:09:50;;;;;;;17.27;3.67;;;3.00;99.90;;;;;;4974970;28;20532;-92
2022/01/05 09:12:16;;;;;;;13.63;3.77;;;3.00;99.90;;;;;;4974653;28;20694;-93
2022/01/05 09:14:42;;;;;;;13.80;3.43;;;3.00;99.90;;;;;;4974850;28;20177;-93
2022/01/05 09:17:08;;;;;;;12.50;3.53;;;3.10;99.90;;;;;;4974353;28;20180;-92
2022/01/05 09:19:35;;;;;;;13.33;3.60;;;3.00;99.90;;;;;;4975209;28;20231;-92
2022/01/05 09:22:10;;;;;;;15.17;3.50;;;3.10;99.90;;;;;;4975339;28;20268;-93
2022/01/05 09:24:37;;;;;;;12.77;3.97;;;3.10;99.90;;;;;;4956080;28;20200;-92
2022/01/05 09:27:06;;;;;;;14.43;4.00;;;3.20;99.90;;;;;;4955587;28;20250;-92
2022/01/05 09:29:32;;;;;;;13.50;3.67;;;3.20;99.90;;;;;;4955768;28;20192;-92
2022/01/05 09:32:03;;;;;;;12.83;3.63;;;3.20;99.90;;;;;;4955783;28;20213;-92
2022/01/05 09:34:30;;;;;;;17.30;3.90;;;3.30;99.90;;;;;;4955924;28;20562;-92
2022/01/05 09:37:01;;;;;;;8.70;4.33;;;3.40;99.90;;;;;;4963391;28;20188;-92
2022/01/05 09:42:14;;;;;;;10.83;4.10;;;3.50;99.90;;;;;;4970550;28;20199;-92
2022/01/05 09:44:44;;;;;;;9.43;3.63;;;3.50;99.90;;;;;;4972972;28;20184;-92
2022/01/05 09:47:48;;;;;;;9.70;3.97;;;3.60;99.90;;;;;;4973303;28;20525;-92
2022/01/05 09:50:14;;;;;;;7.97;3.63;;;3.60;99.90;;;;;;4975512;28;20693;-92
2022/01/05 09:52:47;;;;;;;12.87;4.10;;;3.60;99.90;;;;;;4973926;28;20247;-92
2022/01/05 09:55:14;;;;;;;14.67;4.10;;;3.50;99.90;;;;;;4979310;28;20185;-92
2022/01/05 09:57:43;;;;;;;11.57;3.43;;;3.60;99.90;;;;;;4974019;28;20343;-93
2022/01/05 10:00:12;;;;;;;9.93;3.43;;;3.70;99.90;;;;;;4975220;28;20238;-92
2022/01/05 10:02:38;;;;;;;13.33;3.90;;;3.70;99.90;;;;;;4971628;28;20184;-92
2022/01/05 10:05:08;;;;;;;13.10;4.30;;;3.80;99.90;;;;;;4972682;28;20192;-92
2022/01/05 10:07:34;;;;;;;12.47;4.27;;;3.90;99.90;;;;;;4972839;28;20185;-93
2022/01/05 10:10:00;;;;;;;15.37;3.70;;;3.80;99.90;;;;;;4973200;28;20177;-93
2022/01/05 10:12:27;;;;;;;12.03;3.67;;;3.80;99.90;;;;;;4977922;28;20223;-90
2022/01/05 10:14:53;;;;;;;15.03;4.40;;;4.00;99.90;;;;;;4978325;28;20191;-92
2022/01/05 10:17:30;;;;;;;13.70;3.80;;;4.00;99.90;;;;;;4977852;28;20264;-91
2022/01/05 10:20:05;;;;;;;11.97;3.40;;;4.10;99.90;;;;;;4967407;28;20183;-92
2022/01/05 10:22:41;;;;;;;11.20;3.20;;;4.00;99.90;;;;;;4958772;28;20172;-92
2022/01/05 10:25:13;;;;;;;11.03;3.47;;;4.00;99.90;;;;;;4967978;28;20234;-91
2022/01/05 10:27:39;;;;;;;9.83;2.97;;;4.00;99.90;;;;;;4976549;28;20637;-91
2022/01/05 10:30:10;;;;;;;11.83;4.60;;;4.00;99.90;;;;;;4976992;28;20211;-91
2022/01/05 10:32:37;;;;;;;12.50;3.33;;;4.00;99.90;;;;;;4977768;28;20222;-90
2022/01/05 10:35:04;;;;;;;11.30;3.40;;;3.90;99.90;;;;;;4977149;28;20188;-91
2022/01/05 10:37:36;;;;;;;11.67;4.03;;;3.90;99.90;;;;;;4976152;28;20275;-92
2022/01/05 10:40:24;;;;;;;13.63;3.80;;;3.80;99.90;;;;;;4976500;28;20184;-92
2022/01/05 10:42:54;;;;;;;16.37;4.97;;;3.70;99.90;;;;;;4977010;28;20271;-91
2022/01/05 10:45:39;;;;;;;16.67;4.60;;;3.50;99.90;;;;;;4976571;28;20219;-92
2022/01/05 10:48:11;;;;;;;15.00;4.97;;;3.50;99.90;;;;;;4976550;28;20219;-92
2022/01/05 10:50:38;;;;;;;10.57;3.80;;;3.50;99.90;;;;;;4973523;28;20609;-92
2022/01/05 10:53:05;;;;;;;11.87;4.53;;;3.60;99.90;;;;;;4960644;28;20718;-93
2022/01/05 10:55:39;;;;;;;12.10;4.07;;;3.60;99.90;;;;;;4976574;28;20188;-92
2022/01/05 10:58:15;;;;;;;9.60;3.97;;;3.60;99.90;;;;;;4977205;28;20184;-91
2022/01/05 11:00:44;;;;;;;12.50;3.83;;;3.70;99.90;;;;;;4993293;28;20200;-91
2022/01/05 11:03:35;;;;;;;16.17;5.00;;;3.70;99.90;;;;;;4976904;28;20224;-90
2022/01/05 11:06:21;;;;;;;10.77;4.03;;;3.70;99.90;;;;;;4976277;28;20678;-91
2022/01/05 11:08:52;;;;;;;10.20;3.73;;;3.80;99.90;;;;;;4975823;28;20185;-91
2022/01/05 11:11:49;;;;;;;10.43;3.90;;;3.90;99.90;;;;;;4973466;28;20201;-90
2022/01/05 11:14:29;;;;;;;10.33;3.20;;;3.90;99.90;;;;;;4968156;28;20635;-91
2022/01/05 11:16:57;;;;;;;9.67;3.40;;;3.90;99.90;;;;;;4975889;28;20227;-90
2022/01/05 11:19:31;;;;;;;7.50;3.67;;;3.90;99.90;;;;;;4975864;28;20180;-92
2022/01/05 11:22:13;;;;;;;12.63;3.80;;;3.80;99.90;;;;;;4973703;28;20180;-89
2022/01/05 11:24:45;;;;;;;7.50;2.90;;;3.70;99.90;;;;;;4957320;29;20181;-92
2022/01/05 11:27:24;;;;;;;9.37;3.23;;;3.60;99.90;;;;;;4973548;28;20228;-91
2022/01/05 11:29:51;;;;;;;9.70;3.20;;;3.60;99.90;;;;;;4975576;28;20219;-92
2022/01/05 11:32:23;;;;;;;4.87;2.53;;;3.60;99.90;;;;;;4976021;28;20243;-91
2022/01/05 11:34:50;;;;;;;4.77;2.33;;;3.50;99.90;;;;;;4976058;28;20607;-93
2022/01/05 11:37:16;;;;;;;6.17;2.47;;;3.50;99.90;;;;;;4976596;28;20176;-90
2022/01/05 11:39:48;;;;;;;5.47;2.47;;;3.50;99.90;;;;;;4976135;28;20211;-90
2022/01/05 11:42:16;;;;;;;5.10;2.40;;;3.50;99.90;;;;;;4976007;28;20191;-91
2022/01/05 11:44:51;;;;;;;6.10;2.50;;;3.40;99.90;;;;;;4975532;28;20181;-91
2022/01/05 11:47:31;;;;;;;8.40;2.80;;;3.40;99.90;;;;;;4975956;28;20267;-92
2022/01/05 11:50:26;;;;;;;7.83;2.20;;;3.40;99.90;;;;;;4963279;28;20181;-88
2022/01/05 11:52:56;;;;;;;6.53;2.50;;;3.40;99.90;;;;;;4975191;28;20263;-91
2022/01/05 11:55:24;;;;;;;5.53;2.97;;;3.30;99.90;;;;;;4974527;28;20181;-90
2022/01/05 11:58:15;;;;;;;6.67;2.63;;;3.30;99.90;;;;;;4976231;28;20181;-91
2022/01/05 12:00:46;;;;;;;5.17;2.90;;;3.30;99.90;;;;;;4976036;28;20180;-92
2022/01/05 12:03:47;;;;;;;6.63;2.93;;;3.30;99.90;;;;;;4976090;28;20188;-92
2022/01/05 12:06:13;;;;;;;3.80;2.73;;;3.20;99.90;;;;;;4956684;29;20182;-91
2022/01/05 12:08:44;;;;;;;6.37;3.00;;;3.20;99.90;;;;;;4966140;28;20247;-92
2022/01/05 12:11:29;;;;;;;7.17;2.87;;;3.20;99.90;;;;;;4976020;28;20190;-92
2022/01/05 12:13:56;;;;;;;4.97;3.27;;;3.20;99.90;;;;;;4976011;28;20188;-92
2022/01/05 12:16:23;;;;;;;6.77;3.47;;;3.10;99.90;;;;;;4975919;28;20176;-91
2022/01/05 12:19:12;;;;;;;3.87;2.90;;;3.10;99.90;;;;;;4975046;28;20176;-92
2022/01/05 12:21:51;;;;;;;3.70;3.17;;;3.00;99.90;;;;;;4976019;28;20514;-90
2022/01/05 12:24:18;;;;;;;5.30;3.23;;;2.80;99.90;;;;;;4975145;28;20206;-92
2022/01/05 12:26:44;;;;;;;4.43;3.30;;;2.70;99.90;;;;;;4974582;28;20188;-91
2022/01/05 12:29:13;;;;;;;3.53;3.23;;;2.50;99.90;;;;;;4975726;28;20175;-92
2022/01/05 12:31:54;;;;;;;4.97;3.77;;;2.50;99.90;;;;;;4975185;28;20215;-93
2022/01/05 12:34:58;;;;;;;3.87;3.47;;;2.50;99.90;;;;;;4973538;28;20180;-93
2022/01/05 12:37:58;;;;;;;5.47;3.97;;;2.50;99.90;;;;;;4975231;28;20183;-94
2022/01/05 12:40:31;;;;;;;6.47;4.13;;;2.50;99.90;;;;;;4964322;28;20195;-93
2022/01/05 12:43:08;;;;;;;6.30;4.30;;;2.60;99.90;;;;;;4966924;28;20223;-91
2022/01/05 12:45:51;;;;;;;4.77;4.10;;;2.70;99.90;;;;;;4975489;28;20542;-91
2022/01/05 12:51:16;;;;;;;6.07;4.70;;;2.80;99.90;;;;;;4975529;28;20176;-93
2022/01/05 12:54:02;;;;;;;5.33;4.60;;;2.80;99.90;;;;;;4976580;28;20207;-90
2022/01/05 12:56:36;;;;;;;5.70;4.10;;;2.90;99.90;;;;;;4975010;28;20192;-91
2022/01/05 12:59:06;;;;;;;4.53;4.10;;;2.90;99.90;;;;;;4974505;28;20737;-92
2022/01/05 13:01:32;;;;;;;7.10;4.43;;;3.00;99.90;;;;;;4975022;28;20678;-91
2022/01/05 13:04:00;;;;;;;5.83;4.00;;;3.00;99.90;;;;;;4976356;28;20173;-93
2022/01/05 13:06:32;;;;;;;5.67;4.13;;;3.10;99.90;;;;;;4974175;28;20181;-90
2022/01/05 13:09:06;;;;;;;4.20;3.80;;;3.10;99.90;;;;;;4975259;28;20235;-89
2022/01/05 13:11:50;;;;;;;7.07;3.80;;;3.10;99.90;;;;;;4974809;28;20204;-92
2022/01/05 13:14:52;;;;;;;6.20;3.93;;;3.10;99.90;;;;;;4975010;28;20271;-94
2022/01/05 13:17:28;;;;;;;4.83;4.13;;;3.00;99.90;;;;;;4970999;28;20187;-93